ADDS METAR Data INFO
IDs: Format: Raw Decoded Include TAF

Data at: 1517 UTC 11 Dec 2017

KJSV 111455Z AUTO 00000KT 10SM CLR 01/M01 A3017 RMK AO2
KJSV 111435Z AUTO 00000KT 10SM CLR 00/M02 A3018 RMK AO2
KJSV 111415Z AUTO 00000KT 10SM CLR M02/M04 A3018 RMK AO2
KJSV 111355Z AUTO 00000KT 10SM CLR M03/M06 A3018 RMK AO2
KJSV 111335Z AUTO 00000KT 10SM CLR M03/M06 A3018 RMK AO2
KJSV 111315Z AUTO 00000KT 10SM CLR M03/M06 A3018 RMK AO2
KJSV 111255Z AUTO 00000KT 10SM CLR M03/M06 A3019 RMK AO2
KJSV 111235Z AUTO 00000KT 10SM CLR M03/M06 A3020 RMK AO2
KJSV 111215Z AUTO 00000KT 10SM CLR M03/M06 A3019 RMK AO2
KJSV 111155Z AUTO 00000KT 10SM CLR M03/M06 A3020 RMK AO2
KJSV 111135Z AUTO 00000KT 10SM CLR M03/M06 A3020 RMK AO2
KJSV 111115Z AUTO 00000KT 10SM CLR M03/M06 A3019 RMK AO2
KJSV 111055Z AUTO 00000KT 10SM CLR M02/M06 A3019 RMK AO2
KJSV 111035Z AUTO 00000KT 10SM CLR M02/M06 A3020 RMK AO2
KJSV 111015Z AUTO 00000KT 10SM CLR M02/M06 A3020 RMK AO2
KJSV 110955Z AUTO 00000KT 10SM CLR M02/M07 A3020 RMK AO2
KJSV 110935Z AUTO 00000KT 10SM CLR M02/M07 A3020 RMK AO2
KJSV 110915Z AUTO 00000KT 10SM CLR M02/M06 A3021 RMK AO2
KJSV 110855Z AUTO 00000KT 10SM CLR M02/M06 A3022 RMK AO2
KJSV 110835Z AUTO 00000KT 10SM CLR M02/M06 A3022 RMK AO2
KJSV 110815Z AUTO 00000KT 10SM CLR M02/M07 A3022 RMK AO2
KJSV 110755Z AUTO 00000KT 10SM CLR M01/M06 A3022 RMK AO2
KJSV 110735Z AUTO 00000KT 10SM CLR M01/M07 A3022 RMK AO2
KJSV 110715Z AUTO 00000KT 10SM CLR M01/M06 A3022 RMK AO2
KJSV 110655Z AUTO 00000KT 10SM CLR M01/M07 A3023 RMK AO2
KJSV 110635Z AUTO 00000KT 10SM CLR 00/M05 A3023 RMK AO2
KJSV 110615Z AUTO 00000KT 10SM CLR 00/M05 A3024 RMK AO2
KJSV 110555Z AUTO 00000KT 10SM CLR 00/M05 A3024 RMK AO2
KJSV 110535Z AUTO 00000KT 10SM CLR 00/M05 A3024 RMK AO2
KJSV 110515Z AUTO 00000KT 10SM CLR 00/M06 A3024 RMK AO2
KJSV 110455Z AUTO 00000KT 10SM CLR 00/M06 A3024 RMK AO2
KJSV 110435Z AUTO 00000KT 10SM CLR 00/M07 A3024 RMK AO2
KJSV 110415Z AUTO 00000KT 10SM CLR 01/M05 A3023 RMK AO2
KJSV 110355Z AUTO 00000KT 10SM CLR 01/M05 A3023 RMK AO2
KJSV 110335Z AUTO 00000KT 10SM CLR 02/M04 A3023 RMK AO2
KJSV 110315Z AUTO 00000KT 10SM CLR 03/M04 A3023 RMK AO2
KJSV 110255Z AUTO 28003KT 10SM CLR 04/M06 A3023 RMK AO2
KJSV 110235Z AUTO 28003KT 10SM CLR 05/M06 A3022 RMK AO2
KJSV 110215Z AUTO 00000KT 10SM CLR 06/M06 A3023 RMK AO2
KJSV 110155Z AUTO 00000KT 10SM CLR 06/M05 A3023 RMK AO2
KJSV 110135Z AUTO 00000KT 10SM CLR 06/M06 A3023 RMK AO2
KJSV 110115Z AUTO 00000KT 10SM CLR 06/M08 A3023 RMK AO2
KJSV 110055Z AUTO 00000KT 10SM CLR 07/M08 A3022 RMK AO2
KJSV 110035Z AUTO 00000KT 10SM CLR 08/M06 A3022 RMK AO2
KJSV 110015Z AUTO 31003KT 10SM CLR 10/M05 A3022 RMK AO2
KJSV 102355Z AUTO 30003KT 10SM CLR 11/M06 A3022 RMK AO2
KJSV 102335Z AUTO 27004KT 10SM CLR 13/M06 A3021 RMK AO2
KJSV 102315Z AUTO 28003KT 10SM CLR 16/M06 A3021 RMK AO2
KJSV 102255Z AUTO 28004KT 10SM CLR 17/M05 A3021 RMK AO2
KJSV 102235Z AUTO 28004KT 10SM CLR 18/M05 A3021 RMK AO2
KJSV 102215Z AUTO 26007KT 10SM CLR 18/M06 A3021 RMK AO2
KJSV 102155Z AUTO 29010KT 10SM CLR 18/M06 A3021 RMK AO2
KJSV 102135Z AUTO 29010KT 10SM CLR 18/M06 A3021 RMK AO2
KJSV 102115Z AUTO 26007G10KT 10SM CLR 18/M06 A3020 RMK AO2
KJSV 102055Z AUTO 27007KT 10SM CLR 18/M05 A3020 RMK AO2
KJSV 102035Z AUTO 27008KT 10SM CLR 17/M05 A3020 RMK AO2
KJSV 102015Z AUTO 27011KT 10SM 17/M05 A3021 RMK AO2 PWINO
KJSV 101955Z AUTO 26011KT 10SM CLR 17/M05 A3021 RMK AO2
KJSV 101935Z AUTO 24007KT 10SM CLR 16/M05 A3021 RMK AO2
KJSV 101915Z AUTO 25009KT 10SM CLR 16/M05 A3022 RMK AO2
KJSV 101855Z AUTO 27007KT 10SM CLR 15/M04 A3022 RMK AO2
KJSV 101835Z AUTO 25007KT 10SM CLR 15/M03 A3023 RMK AO2
KJSV 101815Z AUTO 29010KT 10SM CLR 14/M03 A3025 RMK AO2
KJSV 101755Z AUTO 25009KT 10SM CLR 13/M03 A3026 RMK AO2
KJSV 101735Z AUTO 28008KT 10SM CLR 12/M02 A3026 RMK AO2
KJSV 101715Z AUTO 30006KT 10SM CLR 11/M01 A3027 RMK AO2
KJSV 101655Z AUTO 26004KT 10SM CLR 10/00 A3028 RMK AO2
KJSV 101635Z AUTO 22005KT 10SM CLR 09/01 A3027 RMK AO2
KJSV 101615Z AUTO 00000KT 10SM CLR 07/02 A3028 RMK AO2
KJSV 101555Z AUTO 00000KT 10SM CLR 03/00 A3028 RMK AO2
KJSV 101535Z AUTO 00000KT 10SM CLR 02/00 A3028 RMK AO2
KJSV 101515Z AUTO 09003KT 10SM CLR 00/M01 A3028 RMK AO2
KJSV 101455Z AUTO 04003KT 10SM CLR 00/M02 A3028 RMK AO2
KJSV 101435Z AUTO 00000KT 10SM CLR M02/M04 A3028 RMK AO2
KJSV 101415Z AUTO 00000KT 10SM CLR M05/M07 A3029 RMK AO2
KJSV 101355Z AUTO 00000KT 10SM CLR M06/M08 A3029 RMK AO2
KJSV 101335Z AUTO 00000KT 10SM CLR M06/M08 A3030 RMK AO2
KJSV 101315Z AUTO 00000KT 10SM CLR M06/M08 A3030 RMK AO2
KJSV 101255Z AUTO 11003KT 10SM CLR M06/M08 A3030 RMK AO2
KJSV 101235Z AUTO 00000KT 10SM CLR M06/M08 A3030 RMK AO2
KJSV 101215Z AUTO 00000KT 10SM CLR M06/M08 A3030 RMK AO2
KJSV 101155Z AUTO 00000KT 10SM CLR M06/M08 A3030 RMK AO2
KJSV 101135Z AUTO 00000KT 10SM CLR M06/M08 A3030 RMK AO2
KJSV 101115Z AUTO 00000KT 10SM CLR M06/M08 A3030 RMK AO2
KJSV 101055Z AUTO 00000KT 10SM CLR M06/M08 A3030 RMK AO2
KJSV 101035Z AUTO 00000KT 10SM CLR M05/M07 A3030 RMK AO2
KJSV 101015Z AUTO 00000KT 10SM CLR M06/M08 A3030 RMK AO2
KJSV 100955Z AUTO 00000KT 10SM CLR M06/M08 A3031 RMK AO2
KJSV 100935Z AUTO 00000KT 10SM CLR M05/M07 A3031 RMK AO2
KJSV 100915Z AUTO 00000KT 10SM CLR M05/M07 A3031 RMK AO2
KJSV 100855Z AUTO 00000KT 10SM CLR M05/M07 A3031 RMK AO2
KJSV 100835Z AUTO 00000KT 10SM CLR M05/M08 A3031 RMK AO2
KJSV 100815Z AUTO 00000KT 10SM CLR M05/M08 A3031 RMK AO2
KJSV 100755Z AUTO 00000KT 10SM CLR M05/M08 A3031 RMK AO2
KJSV 100735Z AUTO 00000KT 10SM CLR M05/M08 A3031 RMK AO2
KJSV 100715Z AUTO 00000KT 10SM CLR M04/M08 A3030 RMK AO2
KJSV 100655Z AUTO 00000KT 10SM CLR M04/M08 A3030 RMK AO2
KJSV 100635Z AUTO 00000KT 10SM CLR M03/M08 A3031 RMK AO2
KJSV 100615Z AUTO 00000KT 10SM CLR M03/M08 A3031 RMK AO2
KJSV 100555Z AUTO 00000KT 10SM CLR M03/M08 A3031 RMK AO2
KJSV 100535Z AUTO 00000KT 10SM CLR M03/M08 A3031 RMK AO2
KJSV 100515Z AUTO 00000KT 10SM CLR M03/M08 A3031 RMK AO2
KJSV 100455Z AUTO 00000KT 10SM CLR M03/M08 A3031 RMK AO2
KJSV 100435Z AUTO 00000KT 10SM CLR M03/M08 A3031 RMK AO2
KJSV 100415Z AUTO 00000KT 10SM CLR M03/M08 A3031 RMK AO2
KJSV 100355Z AUTO 00000KT 10SM CLR M02/M08 A3030 RMK AO2
KJSV 100335Z AUTO 00000KT 10SM CLR M02/M07 A3030 RMK AO2